<?xml version='1.0' encoding='utf-8'?>
<gpx xmlns="http://www.topografix.com/GPX/1/1" xmlns:gpxx="http://www.garmin.com/xmlschemas/GpxExtensions/v3" xmlns:xsi="http://www.w3.org/2001/XMLSchema-instance" creator="eTrex 30" version="1.1" xsi:schemaLocation="http://www.topografix.com/GPX/1/1 http://www.topografix.com/GPX/1/1/gpx.xsd http://www.garmin.com/xmlschemas/GpxExtensions/v3 http://www8.garmin.com/xmlschemas/GpxExtensionsv3.xsd http://www.garmin.com/xmlschemas/WaypointExtension/v1 http://www8.garmin.com/xmlschemas/WaypointExtensionv1.xsd http://www.garmin.com/xmlschemas/TrackPointExtension/v1 http://www.garmin.com/xmlschemas/TrackPointExtensionv1.xsd"><metadata><link href="http://www.garmin.com"><text>Garmin International</text></link><time>2015-11-21T15:10:41Z</time></metadata><trk><name>21-NOV-15 17:10:38</name><extensions><gpxx:TrackExtension><gpxx:DisplayColor>Cyan</gpxx:DisplayColor></gpxx:TrackExtension></extensions><trkseg><trkpt lat="31.2551661674" lon="35.5208076350"><ele>-320.0</ele><time>2015-11-21T07:18:38Z</time></trkpt><trkpt lat="31.2549063284" lon="35.5208915379"><ele>-319.5</ele><time>2015-11-21T07:20:30Z</time></trkpt><trkpt lat="31.2548683584" lon="35.5195651017"><ele>-322.8</ele><time>2015-11-21T07:21:20Z</time></trkpt><trkpt lat="31.2570234295" lon="35.5202442035"><ele>-323.4</ele><time>2015-11-21T07:22:29Z</time></trkpt><trkpt lat="31.2613862939" lon="35.5221393518"><ele>-330.5</ele><time>2015-11-21T07:24:50Z</time></trkpt><trkpt lat="31.2615701091" lon="35.5219354201"><ele>-331.1</ele><time>2015-11-21T07:25:31Z</time></trkpt><trkpt lat="31.2615604699" lon="35.5221939180"><ele>-330.6</ele><time>2015-11-21T07:39:05Z</time></trkpt><trkpt lat="31.2616184726" lon="35.5220852047"><ele>-330.9</ele><time>2015-11-21T07:40:52Z</time></trkpt><trkpt lat="31.2616009545" lon="35.5219211709"><ele>-331.3</ele><time>2015-11-21T07:50:23Z</time></trkpt><trkpt lat="31.2615427841" lon="35.5220301356"><ele>-330.7</ele><time>2015-11-21T07:51:10Z</time></trkpt><trkpt lat="31.2602927908" lon="35.5215167440"><ele>-328.3</ele><time>2015-11-21T07:52:05Z</time></trkpt><trkpt lat="31.2602172699" lon="35.5218278803"><ele>-327.9</ele><time>2015-11-21T07:55:32Z</time></trkpt><trkpt lat="31.2601728458" lon="35.5216512736"><ele>-327.8</ele><time>2015-11-21T08:05:39Z</time></trkpt><trkpt lat="31.2590060849" lon="35.5209715012"><ele>-326.8</ele><time>2015-11-21T08:06:35Z</time></trkpt><trkpt lat="31.2557017710" lon="35.5196510162"><ele>-323.4</ele><time>2015-11-21T08:08:05Z</time></trkpt><trkpt lat="31.2514229771" lon="35.5186487082"><ele>-324.0</ele><time>2015-11-21T08:09:30Z</time></trkpt><trkpt lat="31.2509254273" lon="35.5186171923"><ele>-323.2</ele><time>2015-11-21T08:09:42Z</time></trkpt><trkpt lat="31.2508024648" lon="35.5187675636"><ele>-322.9</ele><time>2015-11-21T08:09:47Z</time></trkpt><trkpt lat="31.2510093302" lon="35.5229882710"><ele>-309.1</ele><time>2015-11-21T08:11:41Z</time></trkpt><trkpt lat="31.2506059092" lon="35.5253518838"><ele>-296.0</ele><time>2015-11-21T08:12:57Z</time></trkpt><trkpt lat="31.2505800091" lon="35.5265608057"><ele>-283.5</ele><time>2015-11-21T08:13:44Z</time></trkpt><trkpt lat="31.2519051041" lon="35.5350819323"><ele>-241.7</ele><time>2015-11-21T08:19:17Z</time></trkpt><trkpt lat="31.2521443237" lon="35.5446456838"><ele>-213.8</ele><time>2015-11-21T08:23:40Z</time></trkpt><trkpt lat="31.2517836504" lon="35.5458289571"><ele>-213.3</ele><time>2015-11-21T08:27:23Z</time></trkpt><trkpt lat="31.2416775059" lon="35.5682200380"><ele>-88.6</ele><time>2015-11-21T08:41:04Z</time></trkpt><trkpt lat="31.2412562314" lon="35.5693784170"><ele>-80.2</ele><time>2015-11-21T08:41:58Z</time></trkpt><trkpt lat="31.2411542237" lon="35.5703208782"><ele>-75.3</ele><time>2015-11-21T08:42:46Z</time></trkpt><trkpt lat="31.2413560599" lon="35.5716119427"><ele>-65.2</ele><time>2015-11-21T08:43:52Z</time></trkpt><trkpt lat="31.2429540697" lon="35.5757176504"><ele>-31.4</ele><time>2015-11-21T08:57:36Z</time></trkpt><trkpt lat="31.2438793480" lon="35.5778073426"><ele>-26.5</ele><time>2015-11-21T09:15:58Z</time></trkpt><trkpt lat="31.2443501595" lon="35.5784768052"><ele>-19.5</ele><time>2015-11-21T09:16:17Z</time></trkpt><trkpt lat="31.2448998448" lon="35.5789992493"><ele>-17.6</ele><time>2015-11-21T09:16:35Z</time></trkpt><trkpt lat="31.2456704769" lon="35.5793496966"><ele>-20.3</ele><time>2015-11-21T09:16:54Z</time></trkpt><trkpt lat="31.2491627969" lon="35.5804246757"><ele>-4.4</ele><time>2015-11-21T09:20:22Z</time></trkpt><trkpt lat="31.2499694712" lon="35.5808475427"><ele>17.6</ele><time>2015-11-21T09:21:58Z</time></trkpt><trkpt lat="31.2523499317" lon="35.5816381238"><ele>26.0</ele><time>2015-11-21T09:23:09Z</time></trkpt><trkpt lat="31.2532779761" lon="35.5828044657"><ele>37.2</ele><time>2015-11-21T09:23:52Z</time></trkpt><trkpt lat="31.2535261642" lon="35.5842275452"><ele>34.1</ele><time>2015-11-21T09:25:09Z</time></trkpt><trkpt lat="31.2545020692" lon="35.5858207773"><ele>55.8</ele><time>2015-11-21T09:26:44Z</time></trkpt><trkpt lat="31.2543749996" lon="35.5872189626"><ele>65.2</ele><time>2015-11-21T09:28:07Z</time></trkpt><trkpt lat="31.2540889252" lon="35.5862196721"><ele>73.8</ele><time>2015-11-21T09:29:09Z</time></trkpt><trkpt lat="31.2538617756" lon="35.5859924387"><ele>76.2</ele><time>2015-11-21T09:29:30Z</time></trkpt><trkpt lat="31.2531970069" lon="35.5866392702"><ele>89.2</ele><time>2015-11-21T09:30:39Z</time></trkpt><trkpt lat="31.2521806173" lon="35.5870427750"><ele>96.6</ele><time>2015-11-21T09:31:49Z</time></trkpt><trkpt lat="31.2521527894" lon="35.5872778036"><ele>103.8</ele><time>2015-11-21T09:34:46Z</time></trkpt><trkpt lat="31.2528968509" lon="35.5873627122"><ele>106.4</ele><time>2015-11-21T09:36:41Z</time></trkpt><trkpt lat="31.2525054161" lon="35.5886346661"><ele>128.8</ele><time>2015-11-21T09:38:13Z</time></trkpt><trkpt lat="31.2526337430" lon="35.5889960937"><ele>138.2</ele><time>2015-11-21T09:38:36Z</time></trkpt><trkpt lat="31.2530429475" lon="35.5894094054"><ele>142.0</ele><time>2015-11-21T09:39:12Z</time></trkpt><trkpt lat="31.2530856114" lon="35.5905593187"><ele>150.8</ele><time>2015-11-21T09:40:17Z</time></trkpt><trkpt lat="31.2529569492" lon="35.5905696284"><ele>155.8</ele><time>2015-11-21T09:40:25Z</time></trkpt><trkpt lat="31.2527249381" lon="35.5897150096"><ele>153.0</ele><time>2015-11-21T09:41:09Z</time></trkpt><trkpt lat="31.2524757441" lon="35.5896616168"><ele>154.2</ele><time>2015-11-21T09:41:29Z</time></trkpt><trkpt lat="31.2524189986" lon="35.5904010683"><ele>169.3</ele><time>2015-11-21T09:42:12Z</time></trkpt><trkpt lat="31.2526210025" lon="35.5916169472"><ele>180.6</ele><time>2015-11-21T09:43:29Z</time></trkpt><trkpt lat="31.2523943558" lon="35.5917671509"><ele>183.6</ele><time>2015-11-21T09:44:26Z</time></trkpt><trkpt lat="31.2517973967" lon="35.5912692659"><ele>189.9</ele><time>2015-11-21T09:45:16Z</time></trkpt><trkpt lat="31.2514966540" lon="35.5913908873"><ele>193.8</ele><time>2015-11-21T09:45:40Z</time></trkpt><trkpt lat="31.2506588828" lon="35.5928977020"><ele>215.2</ele><time>2015-11-21T09:48:15Z</time></trkpt><trkpt lat="31.2507089227" lon="35.5936633050"><ele>218.5</ele><time>2015-11-21T09:57:11Z</time></trkpt><trkpt lat="31.2509625591" lon="35.5940841604"><ele>220.8</ele><time>2015-11-21T09:57:37Z</time></trkpt><trkpt lat="31.2523346767" lon="35.5948257074"><ele>226.8</ele><time>2015-11-21T09:58:53Z</time></trkpt><trkpt lat="31.2531057280" lon="35.5957920570"><ele>236.1</ele><time>2015-11-21T09:59:59Z</time></trkpt><trkpt lat="31.2538690679" lon="35.5974795856"><ele>262.6</ele><time>2015-11-21T10:01:38Z</time></trkpt><trkpt lat="31.2546997983" lon="35.5987221189"><ele>279.0</ele><time>2015-11-21T10:03:04Z</time></trkpt><trkpt lat="31.2558037788" lon="35.6012307387"><ele>311.7</ele><time>2015-11-21T10:05:54Z</time></trkpt><trkpt lat="31.2558493763" lon="35.6020411011"><ele>317.5</ele><time>2015-11-21T10:07:25Z</time></trkpt><trkpt lat="31.2560531404" lon="35.6022604555"><ele>307.9</ele><time>2015-11-21T10:13:56Z</time></trkpt><trkpt lat="31.2557814829" lon="35.6021444499"><ele>317.9</ele><time>2015-11-21T10:16:01Z</time></trkpt><trkpt lat="31.2548707053" lon="35.6029074546"><ele>330.8</ele><time>2015-11-21T10:17:17Z</time></trkpt><trkpt lat="31.2544798572" lon="35.6039406918"><ele>338.0</ele><time>2015-11-21T10:18:15Z</time></trkpt><trkpt lat="31.2539041881" lon="35.6047805585"><ele>346.9</ele><time>2015-11-21T10:18:57Z</time></trkpt><trkpt lat="31.2530207355" lon="35.6073127314"><ele>353.7</ele><time>2015-11-21T10:20:18Z</time></trkpt><trkpt lat="31.2532731146" lon="35.6093005836"><ele>370.3</ele><time>2015-11-21T10:22:08Z</time></trkpt><trkpt lat="31.2531623058" lon="35.6098394562"><ele>370.9</ele><time>2015-11-21T10:22:38Z</time></trkpt><trkpt lat="31.2525402848" lon="35.6111733522"><ele>374.5</ele><time>2015-11-21T10:23:36Z</time></trkpt><trkpt lat="31.2526227627" lon="35.6116332673"><ele>377.0</ele><time>2015-11-21T10:23:49Z</time></trkpt><trkpt lat="31.2530823424" lon="35.6124833599"><ele>379.0</ele><time>2015-11-21T10:24:08Z</time></trkpt><trkpt lat="31.2532897107" lon="35.6136654597"><ele>378.2</ele><time>2015-11-21T10:24:32Z</time></trkpt><trkpt lat="31.2525396980" lon="35.6171555165"><ele>396.1</ele><time>2015-11-21T10:27:32Z</time></trkpt><trkpt lat="31.2514617015" lon="35.6190023012"><ele>413.7</ele><time>2015-11-21T10:29:49Z</time></trkpt><trkpt lat="31.2508748844" lon="35.6195801497"><ele>416.1</ele><time>2015-11-21T10:38:56Z</time></trkpt><trkpt lat="31.2498786114" lon="35.6201848201"><ele>413.5</ele><time>2015-11-21T10:39:40Z</time></trkpt><trkpt lat="31.2488066498" lon="35.6217823271"><ele>413.5</ele><time>2015-11-21T10:40:30Z</time></trkpt><trkpt lat="31.2465765607" lon="35.6234000344"><ele>424.6</ele><time>2015-11-21T10:42:12Z</time></trkpt><trkpt lat="31.2416303158" lon="35.6302310340"><ele>452.4</ele><time>2015-11-21T10:50:11Z</time></trkpt><trkpt lat="31.2390408106" lon="35.6357754953"><ele>464.1</ele><time>2015-11-21T10:53:17Z</time></trkpt><trkpt lat="31.2388560735" lon="35.6365185510"><ele>466.3</ele><time>2015-11-21T10:53:51Z</time></trkpt><trkpt lat="31.2389426585" lon="35.6384741329"><ele>485.8</ele><time>2015-11-21T10:55:27Z</time></trkpt><trkpt lat="31.2376382668" lon="35.6401643436"><ele>499.6</ele><time>2015-11-21T10:57:50Z</time></trkpt><trkpt lat="31.2364013493" lon="35.6432827469"><ele>516.8</ele><time>2015-11-21T11:00:50Z</time></trkpt><trkpt lat="31.2358893827" lon="35.6440237071"><ele>517.8</ele><time>2015-11-21T11:01:40Z</time></trkpt><trkpt lat="31.2353111152" lon="35.6442404632"><ele>519.7</ele><time>2015-11-21T11:02:10Z</time></trkpt><trkpt lat="31.2331033219" lon="35.6443477515"><ele>536.3</ele><time>2015-11-21T11:04:23Z</time></trkpt><trkpt lat="31.2321125809" lon="35.6447696127"><ele>536.5</ele><time>2015-11-21T11:21:37Z</time></trkpt><trkpt lat="31.2298509758" lon="35.6469844468"><ele>527.2</ele><time>2015-11-21T11:22:25Z</time></trkpt><trkpt lat="31.2282900978" lon="35.6491463911"><ele>535.2</ele><time>2015-11-21T11:24:03Z</time></trkpt><trkpt lat="31.2275400851" lon="35.6496848445"><ele>549.5</ele><time>2015-11-21T11:26:17Z</time></trkpt><trkpt lat="31.2251948286" lon="35.6507087778"><ele>562.4</ele><time>2015-11-21T11:28:34Z</time></trkpt><trkpt lat="31.2222293951" lon="35.6543214619"><ele>584.3</ele><time>2015-11-21T11:32:32Z</time></trkpt><trkpt lat="31.2207547668" lon="35.6554529350"><ele>583.4</ele><time>2015-11-21T11:33:25Z</time></trkpt><trkpt lat="31.2191920448" lon="35.6563619524"><ele>593.0</ele><time>2015-11-21T11:34:39Z</time></trkpt><trkpt lat="31.2177041732" lon="35.6564688217"><ele>602.2</ele><time>2015-11-21T11:36:12Z</time></trkpt><trkpt lat="31.2139267009" lon="35.6593037490"><ele>619.4</ele><time>2015-11-21T11:39:44Z</time></trkpt><trkpt lat="31.2126622908" lon="35.6595200859"><ele>626.6</ele><time>2015-11-21T11:41:01Z</time></trkpt><trkpt lat="31.2091590744" lon="35.6611884199"><ele>665.2</ele><time>2015-11-21T11:45:21Z</time></trkpt><trkpt lat="31.2069681287" lon="35.6620086730"><ele>677.5</ele><time>2015-11-21T11:53:29Z</time></trkpt><trkpt lat="31.2041404098" lon="35.6638214272"><ele>696.2</ele><time>2015-11-21T11:59:20Z</time></trkpt><trkpt lat="31.2026426475" lon="35.6653681397"><ele>694.0</ele><time>2015-11-21T12:00:33Z</time></trkpt><trkpt lat="31.1997451074" lon="35.6701228581"><ele>716.9</ele><time>2015-11-21T12:04:43Z</time></trkpt><trkpt lat="31.1986069288" lon="35.6734517310"><ele>717.5</ele><time>2015-11-21T12:06:02Z</time></trkpt><trkpt lat="31.1987899058" lon="35.6751622260"><ele>720.0</ele><time>2015-11-21T12:07:06Z</time></trkpt><trkpt lat="31.1987136304" lon="35.6757283397"><ele>716.1</ele><time>2015-11-21T12:07:18Z</time></trkpt><trkpt lat="31.1982220318" lon="35.6771398522"><ele>713.8</ele><time>2015-11-21T12:07:42Z</time></trkpt><trkpt lat="31.1978264060" lon="35.6801514700"><ele>713.1</ele><time>2015-11-21T12:08:39Z</time></trkpt><trkpt lat="31.1971902195" lon="35.6832482480"><ele>715.7</ele><time>2015-11-21T12:10:04Z</time></trkpt><trkpt lat="31.1969230883" lon="35.6856033951"><ele>719.7</ele><time>2015-11-21T12:11:16Z</time></trkpt><trkpt lat="31.1964822840" lon="35.6875440571"><ele>714.8</ele><time>2015-11-21T12:11:53Z</time></trkpt><trkpt lat="31.1966701224" lon="35.6882006116"><ele>718.4</ele><time>2015-11-21T12:12:10Z</time></trkpt><trkpt lat="31.1981262267" lon="35.6912207790"><ele>724.9</ele><time>2015-11-21T12:14:05Z</time></trkpt><trkpt lat="31.1982213613" lon="35.6919874717"><ele>720.9</ele><time>2015-11-21T12:14:24Z</time></trkpt><trkpt lat="31.1978316866" lon="35.6937050074"><ele>716.1</ele><time>2015-11-21T12:14:56Z</time></trkpt><trkpt lat="31.1974974163" lon="35.6942949258"><ele>715.3</ele><time>2015-11-21T12:15:10Z</time></trkpt><trkpt lat="31.1962546315" lon="35.6951814797"><ele>707.7</ele><time>2015-11-21T12:15:49Z</time></trkpt><trkpt lat="31.1945911590" lon="35.6952830683"><ele>716.7</ele><time>2015-11-21T12:16:10Z</time></trkpt><trkpt lat="31.1926195677" lon="35.6951579265"><ele>727.6</ele><time>2015-11-21T12:17:38Z</time></trkpt><trkpt lat="31.1908755451" lon="35.6960091926"><ele>751.1</ele><time>2015-11-21T12:19:46Z</time></trkpt><trkpt lat="31.1894480232" lon="35.6963607296"><ele>762.2</ele><time>2015-11-21T12:21:30Z</time></trkpt><trkpt lat="31.1892171018" lon="35.6961248629"><ele>759.9</ele><time>2015-11-21T12:31:10Z</time></trkpt><trkpt lat="31.1893777829" lon="35.6963850372"><ele>762.4</ele><time>2015-11-21T12:37:04Z</time></trkpt><trkpt lat="31.1885970086" lon="35.6965957582"><ele>770.1</ele><time>2015-11-21T12:38:05Z</time></trkpt><trkpt lat="31.1876168288" lon="35.6966002006"><ele>781.1</ele><time>2015-11-21T12:39:15Z</time></trkpt><trkpt lat="31.1863589566" lon="35.6969685853"><ele>790.6</ele><time>2015-11-21T12:40:49Z</time></trkpt><trkpt lat="31.1849469412" lon="35.6968512386"><ele>805.8</ele><time>2015-11-21T12:42:29Z</time></trkpt><trkpt lat="31.1839858722" lon="35.6971053779"><ele>811.3</ele><time>2015-11-21T12:43:38Z</time></trkpt><trkpt lat="31.1837821919" lon="35.6975214556"><ele>819.3</ele><time>2015-11-21T12:44:10Z</time></trkpt><trkpt lat="31.1838488281" lon="35.6977982260"><ele>821.2</ele><time>2015-11-21T12:44:28Z</time></trkpt><trkpt lat="31.1841326393" lon="35.6980148982"><ele>823.5</ele><time>2015-11-21T12:44:54Z</time></trkpt><trkpt lat="31.1873572413" lon="35.6987868715"><ele>842.7</ele><time>2015-11-21T12:46:46Z</time></trkpt><trkpt lat="31.1894062813" lon="35.6985717919"><ele>864.9</ele><time>2015-11-21T12:48:39Z</time></trkpt><trkpt lat="31.1925631575" lon="35.6975058652"><ele>880.1</ele><time>2015-11-21T12:52:00Z</time></trkpt><trkpt lat="31.1931624636" lon="35.6977081206"><ele>881.1</ele><time>2015-11-21T13:00:49Z</time></trkpt><trkpt lat="31.1924727168" lon="35.6983015593"><ele>881.1</ele><time>2015-11-21T13:02:43Z</time></trkpt><trkpt lat="31.1899717245" lon="35.6997081265"><ele>911.7</ele><time>2015-11-21T13:05:48Z</time></trkpt><trkpt lat="31.1889247410" lon="35.7013580203"><ele>929.9</ele><time>2015-11-21T13:07:55Z</time></trkpt><trkpt lat="31.1876583192" lon="35.7021827158"><ele>955.8</ele><time>2015-11-21T13:09:33Z</time></trkpt><trkpt lat="31.1883183941" lon="35.7045400422"><ele>970.6</ele><time>2015-11-21T13:11:48Z</time></trkpt><trkpt lat="31.1876523681" lon="35.7034700923"><ele>978.9</ele><time>2015-11-21T13:13:05Z</time></trkpt><trkpt lat="31.1866947357" lon="35.7028812636"><ele>978.0</ele><time>2015-11-21T13:13:45Z</time></trkpt><trkpt lat="31.1865819152" lon="35.7020801213"><ele>982.8</ele><time>2015-11-21T13:14:24Z</time></trkpt><trkpt lat="31.1864795722" lon="35.7020911854"><ele>984.3</ele><time>2015-11-21T13:14:31Z</time></trkpt><trkpt lat="31.1857569683" lon="35.7034557592"><ele>992.6</ele><time>2015-11-21T13:16:44Z</time></trkpt><trkpt lat="31.1852280702" lon="35.7056809869"><ele>998.8</ele><time>2015-11-21T13:18:19Z</time></trkpt><trkpt lat="31.1847005133" lon="35.7067307364"><ele>996.4</ele><time>2015-11-21T13:19:26Z</time></trkpt><trkpt lat="31.1838769075" lon="35.7065911777"><ele>992.6</ele><time>2015-11-21T13:19:53Z</time></trkpt><trkpt lat="31.1833022442" lon="35.7074539270"><ele>973.5</ele><time>2015-11-21T13:20:38Z</time></trkpt><trkpt lat="31.1827822309" lon="35.7069651783"><ele>964.3</ele><time>2015-11-21T13:21:30Z</time></trkpt><trkpt lat="31.1826065462" lon="35.7071204949"><ele>955.0</ele><time>2015-11-21T13:22:24Z</time></trkpt><trkpt lat="31.1827014294" lon="35.7075376622"><ele>949.3</ele><time>2015-11-21T13:25:21Z</time></trkpt><trkpt lat="31.1825941410" lon="35.7065035030"><ele>958.7</ele><time>2015-11-21T13:28:15Z</time></trkpt><trkpt lat="31.1822827533" lon="35.7058134209"><ele>954.1</ele><time>2015-11-21T13:28:33Z</time></trkpt><trkpt lat="31.1823825818" lon="35.7051347382"><ele>976.6</ele><time>2015-11-21T13:29:47Z</time></trkpt><trkpt lat="31.1821773089" lon="35.7050005440"><ele>982.1</ele><time>2015-11-21T13:30:39Z</time></trkpt><trkpt lat="31.1830056086" lon="35.7046435587"><ele>1002.6</ele><time>2015-11-21T13:32:31Z</time></trkpt><trkpt lat="31.1822696775" lon="35.7039404009"><ele>1011.6</ele><time>2015-11-21T13:34:23Z</time></trkpt><trkpt lat="31.1826041155" lon="35.7021660358"><ele>1018.9</ele><time>2015-11-21T13:37:25Z</time></trkpt><trkpt lat="31.1821581982" lon="35.7019830588"><ele>1019.4</ele><time>2015-11-21T13:38:50Z</time></trkpt><trkpt lat="31.1816596426" lon="35.7014976628"><ele>1020.8</ele><time>2015-11-21T13:41:38Z</time></trkpt><trkpt lat="31.1811677925" lon="35.7013708446"><ele>1025.2</ele><time>2015-11-21T13:43:30Z</time></trkpt><trkpt lat="31.1808456760" lon="35.7016646303"><ele>1021.7</ele><time>2015-11-21T13:45:32Z</time></trkpt><trkpt lat="31.1814062577" lon="35.7019716594"><ele>1025.2</ele><time>2015-11-21T13:47:41Z</time></trkpt><trkpt lat="31.1815554556" lon="35.7017569989"><ele>1025.1</ele><time>2015-11-21T13:48:32Z</time></trkpt><trkpt lat="31.1813356820" lon="35.7022387907"><ele>1016.5</ele><time>2015-11-21T13:50:15Z</time></trkpt><trkpt lat="31.1811321694" lon="35.7022619247"><ele>1007.7</ele><time>2015-11-21T13:51:17Z</time></trkpt><trkpt lat="31.1809698120" lon="35.7019621041"><ele>1017.5</ele><time>2015-11-21T13:52:02Z</time></trkpt><trkpt lat="31.1802469566" lon="35.7014982495"><ele>1004.5</ele><time>2015-11-21T13:53:57Z</time></trkpt><trkpt lat="31.1798592098" lon="35.7014451083"><ele>990.3</ele><time>2015-11-21T13:54:45Z</time></trkpt><trkpt lat="31.1804922950" lon="35.7013121713"><ele>1014.5</ele><time>2015-11-21T13:56:07Z</time></trkpt><trkpt lat="31.1816319823" lon="35.7014704216"><ele>1021.6</ele><time>2015-11-21T13:58:15Z</time></trkpt><trkpt lat="31.1825563386" lon="35.7022120524"><ele>1018.9</ele><time>2015-11-21T14:05:42Z</time></trkpt><trkpt lat="31.1825242359" lon="35.7026179042"><ele>1019.3</ele><time>2015-11-21T14:06:51Z</time></trkpt><trkpt lat="31.1822452862" lon="35.7025910821"><ele>1020.2</ele><time>2015-11-21T14:08:13Z</time></trkpt><trkpt lat="31.1824743636" lon="35.7024640124"><ele>1018.9</ele><time>2015-11-21T14:08:37Z</time></trkpt><trkpt lat="31.1824122537" lon="35.7026914135"><ele>1019.3</ele><time>2015-11-21T14:09:58Z</time></trkpt><trkpt lat="31.1824394949" lon="35.7025127951"><ele>1018.9</ele><time>2015-11-21T14:10:47Z</time></trkpt><trkpt lat="31.1822606251" lon="35.7025120407"><ele>1019.8</ele><time>2015-11-21T14:12:45Z</time></trkpt><trkpt lat="31.1825764552" lon="35.7024008967"><ele>1019.3</ele><time>2015-11-21T14:16:21Z</time></trkpt><trkpt lat="31.1823638063" lon="35.7023569755"><ele>1018.0</ele><time>2015-11-21T14:17:21Z</time></trkpt><trkpt lat="31.1825458612" lon="35.7025453169"><ele>1019.3</ele><time>2015-11-21T14:19:18Z</time></trkpt><trkpt lat="31.1824715976" lon="35.7026661839"><ele>1019.3</ele><time>2015-11-21T14:20:20Z</time></trkpt><trkpt lat="31.1822664924" lon="35.7025237754"><ele>1019.8</ele><time>2015-11-21T14:21:11Z</time></trkpt><trkpt lat="31.1823806539" lon="35.7024226896"><ele>1018.4</ele><time>2015-11-21T14:22:36Z</time></trkpt><trkpt lat="31.1823812407" lon="35.7025548723"><ele>1018.8</ele><time>2015-11-21T14:23:33Z</time></trkpt><trkpt lat="31.1821887922" lon="35.7024998870"><ele>1020.7</ele><time>2015-11-21T14:24:56Z</time></trkpt><trkpt lat="31.1824767105" lon="35.7026639208"><ele>1019.3</ele><time>2015-11-21T14:29:20Z</time></trkpt><trkpt lat="31.1822454538" lon="35.7026195806"><ele>1020.3</ele><time>2015-11-21T14:30:27Z</time></trkpt><trkpt lat="31.1824747827" lon="35.7026590593"><ele>1019.3</ele><time>2015-11-21T14:57:46Z</time></trkpt><trkpt lat="31.1822413467" lon="35.7040424086"><ele>1011.0</ele><time>2015-11-21T14:59:18Z</time></trkpt><trkpt lat="31.1829886772" lon="35.7046552096"><ele>1002.3</ele><time>2015-11-21T14:59:49Z</time></trkpt><trkpt lat="31.1824769620" lon="35.7050059922"><ele>981.3</ele><time>2015-11-21T15:00:17Z</time></trkpt><trkpt lat="31.1828809697" lon="35.7052178867"><ele>981.9</ele><time>2015-11-21T15:00:45Z</time></trkpt><trkpt lat="31.1834227759" lon="35.7058938034"><ele>975.4</ele><time>2015-11-21T15:01:12Z</time></trkpt><trkpt lat="31.1831041798" lon="35.7066414692"><ele>972.3</ele><time>2015-11-21T15:02:01Z</time></trkpt><trkpt lat="31.1826318596" lon="35.7071594708"><ele>956.1</ele><time>2015-11-21T15:02:39Z</time></trkpt><trkpt lat="31.1831920221" lon="35.7082231343"><ele>944.1</ele><time>2015-11-21T15:03:13Z</time></trkpt><trkpt lat="31.1824611202" lon="35.7075151149"><ele>937.8</ele><time>2015-11-21T15:03:34Z</time></trkpt><trkpt lat="31.1822737847" lon="35.7066464145"><ele>937.9</ele><time>2015-11-21T15:03:46Z</time></trkpt><trkpt lat="31.1819410231" lon="35.7061107270"><ele>929.4</ele><time>2015-11-21T15:03:54Z</time></trkpt><trkpt lat="31.1811074428" lon="35.7053970918"><ele>933.7</ele><time>2015-11-21T15:04:09Z</time></trkpt><trkpt lat="31.1800702661" lon="35.7033555117"><ele>923.8</ele><time>2015-11-21T15:04:39Z</time></trkpt><trkpt lat="31.1797724571" lon="35.7031334750"><ele>923.5</ele><time>2015-11-21T15:04:57Z</time></trkpt><trkpt lat="31.1794150528" lon="35.7031385042"><ele>923.9</ele><time>2015-11-21T15:06:11Z</time></trkpt><trkpt lat="31.1796515062" lon="35.7061062846"><ele>956.3</ele><time>2015-11-21T15:07:35Z</time></trkpt><trkpt lat="31.1802085675" lon="35.7077958249"><ele>955.9</ele><time>2015-11-21T15:08:39Z</time></trkpt><trkpt lat="31.1802063044" lon="35.7085955422"><ele>955.4</ele><time>2015-11-21T15:09:14Z</time></trkpt><trkpt lat="31.1798811704" lon="35.7093132008"><ele>960.0</ele><time>2015-11-21T15:09:51Z</time></trkpt><trkpt lat="31.1799495667" lon="35.7095369138"><ele>959.4</ele><time>2015-11-21T15:10:38Z</time></trkpt></trkseg></trk></gpx>